Terminal Aerodrome Forecast
Issued by NWS Shreveport, LA

Home | Current Version | Previous Version | Text Only | Print | Product List | Glossary On
Versions: 1 2 3 4 5 6 7 8 9 10 11 12 13 14
653
FTUS44 KSHV 270542
TAFSHV
TAF
KSHV 270542Z 2706/2806 VRB04KT P6SM FEW050 SCT150
     FM271500 33006KT P6SM SCT250
     FM271800 32008KT P6SM SCT045 SCT250
     FM280000 29003KT P6SM SKC=

USA.gov is the U.S. government's official web portal to all federal, state and local government web resources and services.